sensor_id;sensor_type;location;lat;lon;timestamp;P1;durP1;ratioP1;P2;durP2;ratioP2
6755;SDS011;3415;51.148;7.014;2023-04-09T00:02:21;25.27;;;13.20;;
6755;SDS011;3415;51.148;7.014;2023-04-09T00:04:49;25.50;;;14.37;;
6755;SDS011;3415;51.148;7.014;2023-04-09T00:07:16;24.73;;;11.97;;
6755;SDS011;3415;51.148;7.014;2023-04-09T00:09:44;26.40;;;13.30;;
6755;SDS011;3415;51.148;7.014;2023-04-09T00:12:10;25.53;;;13.27;;
6755;SDS011;3415;51.148;7.014;2023-04-09T00:14:37;27.23;;;13.73;;
6755;SDS011;3415;51.148;7.014;2023-04-09T00:17:04;27.73;;;13.80;;
6755;SDS011;3415;51.148;7.014;2023-04-09T00:19:31;27.03;;;14.30;;
6755;SDS011;3415;51.148;7.014;2023-04-09T00:21:58;29.17;;;14.50;;
6755;SDS011;3415;51.148;7.014;2023-04-09T00:24:24;24.97;;;13.50;;
6755;SDS011;3415;51.148;7.014;2023-04-09T00:26:52;26.43;;;13.57;;
6755;SDS011;3415;51.148;7.014;2023-04-09T00:29:19;24.60;;;12.97;;
6755;SDS011;3415;51.148;7.014;2023-04-09T00:31:46;29.10;;;14.13;;
6755;SDS011;3415;51.148;7.014;2023-04-09T00:34:13;28.80;;;13.50;;
6755;SDS011;3415;51.148;7.014;2023-04-09T00:36:40;29.40;;;14.73;;
6755;SDS011;3415;51.148;7.014;2023-04-09T00:39:06;27.70;;;13.43;;
6755;SDS011;3415;51.148;7.014;2023-04-09T00:41:33;31.40;;;15.47;;
6755;SDS011;3415;51.148;7.014;2023-04-09T00:44:01;23.40;;;13.27;;
6755;SDS011;3415;51.148;7.014;2023-04-09T00:46:29;23.77;;;13.23;;
6755;SDS011;3415;51.148;7.014;2023-04-09T00:48:56;26.63;;;14.03;;
6755;SDS011;3415;51.148;7.014;2023-04-09T00:51:24;30.27;;;13.73;;
6755;SDS011;3415;51.148;7.014;2023-04-09T00:53:51;26.60;;;12.77;;
6755;SDS011;3415;51.148;7.014;2023-04-09T00:56:19;31.77;;;13.80;;
6755;SDS011;3415;51.148;7.014;2023-04-09T00:58:48;26.53;;;13.53;;
6755;SDS011;3415;51.148;7.014;2023-04-09T01:01:16;29.17;;;14.43;;
6755;SDS011;3415;51.148;7.014;2023-04-09T01:03:43;27.20;;;13.20;;
6755;SDS011;3415;51.148;7.014;2023-04-09T01:06:11;28.30;;;13.33;;
6755;SDS011;3415;51.148;7.014;2023-04-09T01:08:44;22.47;;;12.10;;
6755;SDS011;3415;51.148;7.014;2023-04-09T01:11:19;24.70;;;12.57;;
6755;SDS011;3415;51.148;7.014;2023-04-09T01:14:05;23.77;;;12.13;;
6755;SDS011;3415;51.148;7.014;2023-04-09T01:16:50;22.37;;;11.37;;
6755;SDS011;3415;51.148;7.014;2023-04-09T01:19:23;25.50;;;12.03;;
6755;SDS011;3415;51.148;7.014;2023-04-09T01:22:00;26.47;;;12.90;;
6755;SDS011;3415;51.148;7.014;2023-04-09T01:24:31;27.93;;;12.83;;
6755;SDS011;3415;51.148;7.014;2023-04-09T01:27:07;26.33;;;13.13;;
6755;SDS011;3415;51.148;7.014;2023-04-09T01:29:37;24.93;;;11.90;;
6755;SDS011;3415;51.148;7.014;2023-04-09T01:32:09;23.83;;;11.87;;
6755;SDS011;3415;51.148;7.014;2023-04-09T01:34:37;27.23;;;12.70;;
6755;SDS011;3415;51.148;7.014;2023-04-09T01:37:06;24.63;;;12.80;;
6755;SDS011;3415;51.148;7.014;2023-04-09T01:39:34;33.80;;;13.20;;
6755;SDS011;3415;51.148;7.014;2023-04-09T01:42:02;23.00;;;11.80;;
6755;SDS011;3415;51.148;7.014;2023-04-09T01:44:33;22.90;;;11.47;;
6755;SDS011;3415;51.148;7.014;2023-04-09T01:47:03;24.00;;;12.23;;
6755;SDS011;3415;51.148;7.014;2023-04-09T01:49:31;26.60;;;13.50;;
6755;SDS011;3415;51.148;7.014;2023-04-09T01:51:58;23.17;;;11.80;;
6755;SDS011;3415;51.148;7.014;2023-04-09T01:54:25;23.40;;;10.90;;
6755;SDS011;3415;51.148;7.014;2023-04-09T01:56:52;23.77;;;12.27;;
6755;SDS011;3415;51.148;7.014;2023-04-09T01:59:22;25.27;;;12.03;;
6755;SDS011;3415;51.148;7.014;2023-04-09T02:01:51;23.70;;;12.60;;
6755;SDS011;3415;51.148;7.014;2023-04-09T02:04:21;20.93;;;11.33;;
6755;SDS011;3415;51.148;7.014;2023-04-09T02:06:52;27.37;;;13.30;;
6755;SDS011;3415;51.148;7.014;2023-04-09T02:09:23;23.20;;;12.20;;
6755;SDS011;3415;51.148;7.014;2023-04-09T02:11:53;26.63;;;12.80;;
6755;SDS011;3415;51.148;7.014;2023-04-09T02:14:23;25.07;;;12.13;;
6755;SDS011;3415;51.148;7.014;2023-04-09T02:16:53;26.13;;;12.53;;
6755;SDS011;3415;51.148;7.014;2023-04-09T02:19:20;24.23;;;12.33;;
6755;SDS011;3415;51.148;7.014;2023-04-09T02:21:47;24.73;;;12.23;;
6755;SDS011;3415;51.148;7.014;2023-04-09T02:24:14;27.40;;;12.60;;
6755;SDS011;3415;51.148;7.014;2023-04-09T02:26:40;29.63;;;12.97;;
6755;SDS011;3415;51.148;7.014;2023-04-09T02:29:07;26.33;;;11.40;;
6755;SDS011;3415;51.148;7.014;2023-04-09T02:31:34;22.97;;;11.70;;
6755;SDS011;3415;51.148;7.014;2023-04-09T02:34:02;29.67;;;12.67;;
6755;SDS011;3415;51.148;7.014;2023-04-09T02:36:29;29.97;;;13.20;;
6755;SDS011;3415;51.148;7.014;2023-04-09T02:38:56;28.87;;;12.33;;
6755;SDS011;3415;51.148;7.014;2023-04-09T02:41:23;19.83;;;10.90;;
6755;SDS011;3415;51.148;7.014;2023-04-09T02:43:49;26.27;;;12.87;;
6755;SDS011;3415;51.148;7.014;2023-04-09T02:46:16;19.77;;;10.80;;
6755;SDS011;3415;51.148;7.014;2023-04-09T02:48:43;24.70;;;13.10;;
6755;SDS011;3415;51.148;7.014;2023-04-09T02:51:11;22.03;;;11.20;;
6755;SDS011;3415;51.148;7.014;2023-04-09T02:53:38;23.40;;;11.43;;
6755;SDS011;3415;51.148;7.014;2023-04-09T02:56:05;27.47;;;12.40;;
6755;SDS011;3415;51.148;7.014;2023-04-09T02:58:32;30.87;;;13.50;;
6755;SDS011;3415;51.148;7.014;2023-04-09T03:00:59;29.00;;;13.10;;
6755;SDS011;3415;51.148;7.014;2023-04-09T03:03:26;27.67;;;13.50;;
6755;SDS011;3415;51.148;7.014;2023-04-09T03:05:53;28.50;;;13.37;;
6755;SDS011;3415;51.148;7.014;2023-04-09T03:08:21;27.60;;;12.33;;
6755;SDS011;3415;51.148;7.014;2023-04-09T03:10:48;26.00;;;12.80;;
6755;SDS011;3415;51.148;7.014;2023-04-09T03:13:15;23.50;;;13.53;;
6755;SDS011;3415;51.148;7.014;2023-04-09T03:15:42;24.73;;;12.40;;
6755;SDS011;3415;51.148;7.014;2023-04-09T03:18:09;28.07;;;13.03;;
6755;SDS011;3415;51.148;7.014;2023-04-09T03:20:36;30.50;;;12.77;;
6755;SDS011;3415;51.148;7.014;2023-04-09T03:23:03;28.97;;;14.03;;
6755;SDS011;3415;51.148;7.014;2023-04-09T03:25:32;25.97;;;12.70;;
6755;SDS011;3415;51.148;7.014;2023-04-09T03:27:58;36.47;;;13.77;;
6755;SDS011;3415;51.148;7.014;2023-04-09T03:30:25;23.90;;;12.30;;
6755;SDS011;3415;51.148;7.014;2023-04-09T03:32:52;32.70;;;13.27;;
6755;SDS011;3415;51.148;7.014;2023-04-09T03:35:19;25.30;;;12.37;;
6755;SDS011;3415;51.148;7.014;2023-04-09T03:37:46;28.17;;;13.10;;
6755;SDS011;3415;51.148;7.014;2023-04-09T03:40:13;24.50;;;12.40;;
6755;SDS011;3415;51.148;7.014;2023-04-09T03:42:42;24.37;;;12.30;;
6755;SDS011;3415;51.148;7.014;2023-04-09T03:45:09;20.47;;;10.53;;
6755;SDS011;3415;51.148;7.014;2023-04-09T03:47:36;26.53;;;13.00;;
6755;SDS011;3415;51.148;7.014;2023-04-09T03:50:03;31.50;;;11.93;;
6755;SDS011;3415;51.148;7.014;2023-04-09T03:52:30;24.90;;;11.20;;
6755;SDS011;3415;51.148;7.014;2023-04-09T03:54:57;22.47;;;11.53;;
6755;SDS011;3415;51.148;7.014;2023-04-09T03:57:24;23.67;;;12.03;;
6755;SDS011;3415;51.148;7.014;2023-04-09T03:59:52;22.40;;;10.67;;
6755;SDS011;3415;51.148;7.014;2023-04-09T04:02:19;18.23;;;9.80;;
6755;SDS011;3415;51.148;7.014;2023-04-09T04:04:46;22.30;;;10.23;;
6755;SDS011;3415;51.148;7.014;2023-04-09T04:07:13;22.97;;;10.90;;
6755;SDS011;3415;51.148;7.014;2023-04-09T04:09:40;25.10;;;10.27;;
6755;SDS011;3415;51.148;7.014;2023-04-09T04:12:06;18.80;;;9.20;;
6755;SDS011;3415;51.148;7.014;2023-04-09T04:14:34;25.53;;;10.20;;
6755;SDS011;3415;51.148;7.014;2023-04-09T04:17:02;22.33;;;10.67;;
6755;SDS011;3415;51.148;7.014;2023-04-09T04:19:29;24.27;;;11.13;;
6755;SDS011;3415;51.148;7.014;2023-04-09T04:21:56;18.20;;;9.93;;
6755;SDS011;3415;51.148;7.014;2023-04-09T04:24:22;19.93;;;10.20;;
6755;SDS011;3415;51.148;7.014;2023-04-09T04:26:49;20.00;;;9.97;;
6755;SDS011;3415;51.148;7.014;2023-04-09T04:29:16;20.03;;;10.20;;
6755;SDS011;3415;51.148;7.014;2023-04-09T04:31:43;24.90;;;11.30;;
6755;SDS011;3415;51.148;7.014;2023-04-09T04:34:11;23.13;;;10.20;;
6755;SDS011;3415;51.148;7.014;2023-04-09T04:36:38;22.20;;;9.80;;
6755;SDS011;3415;51.148;7.014;2023-04-09T04:39:05;17.47;;;8.90;;
6755;SDS011;3415;51.148;7.014;2023-04-09T04:41:31;20.10;;;9.73;;
6755;SDS011;3415;51.148;7.014;2023-04-09T04:43:58;15.30;;;7.97;;
6755;SDS011;3415;51.148;7.014;2023-04-09T04:46:25;20.20;;;10.10;;
6755;SDS011;3415;51.148;7.014;2023-04-09T04:48:52;17.63;;;8.70;;
6755;SDS011;3415;51.148;7.014;2023-04-09T04:51:20;20.63;;;9.67;;
6755;SDS011;3415;51.148;7.014;2023-04-09T04:53:47;19.80;;;9.10;;
6755;SDS011;3415;51.148;7.014;2023-04-09T04:56:14;18.60;;;8.90;;
6755;SDS011;3415;51.148;7.014;2023-04-09T04:58:41;19.53;;;9.63;;
6755;SDS011;3415;51.148;7.014;2023-04-09T05:01:08;20.80;;;9.10;;
6755;SDS011;3415;51.148;7.014;2023-04-09T05:03:34;17.07;;;8.17;;
6755;SDS011;3415;51.148;7.014;2023-04-09T05:06:01;18.13;;;8.50;;
6755;SDS011;3415;51.148;7.014;2023-04-09T05:08:29;18.87;;;9.10;;
6755;SDS011;3415;51.148;7.014;2023-04-09T05:10:56;16.30;;;7.07;;
6755;SDS011;3415;51.148;7.014;2023-04-09T05:13:23;15.80;;;6.80;;
6755;SDS011;3415;51.148;7.014;2023-04-09T05:15:50;17.83;;;7.37;;
6755;SDS011;3415;51.148;7.014;2023-04-09T05:18:17;21.10;;;8.50;;
6755;SDS011;3415;51.148;7.014;2023-04-09T05:20:43;15.00;;;6.50;;
6755;SDS011;3415;51.148;7.014;2023-04-09T05:23:10;13.17;;;6.43;;
6755;SDS011;3415;51.148;7.014;2023-04-09T05:25:39;17.47;;;8.43;;
6755;SDS011;3415;51.148;7.014;2023-04-09T05:28:06;16.23;;;7.23;;
6755;SDS011;3415;51.148;7.014;2023-04-09T05:30:35;16.23;;;7.23;;
6755;SDS011;3415;51.148;7.014;2023-04-09T05:33:02;14.80;;;7.20;;
6755;SDS011;3415;51.148;7.014;2023-04-09T05:35:28;17.37;;;7.50;;
6755;SDS011;3415;51.148;7.014;2023-04-09T05:37:55;14.13;;;6.77;;
6755;SDS011;3415;51.148;7.014;2023-04-09T05:40:22;13.43;;;7.63;;
6755;SDS011;3415;51.148;7.014;2023-04-09T05:42:50;13.97;;;6.90;;
6755;SDS011;3415;51.148;7.014;2023-04-09T05:45:17;14.13;;;6.53;;
6755;SDS011;3415;51.148;7.014;2023-04-09T05:47:44;15.17;;;7.07;;
6755;SDS011;3415;51.148;7.014;2023-04-09T05:50:11;13.50;;;6.80;;
6755;SDS011;3415;51.148;7.014;2023-04-09T05:52:38;15.60;;;6.00;;
6755;SDS011;3415;51.148;7.014;2023-04-09T05:55:04;16.90;;;6.87;;
6755;SDS011;3415;51.148;7.014;2023-04-09T05:57:33;15.40;;;7.20;;
6755;SDS011;3415;51.148;7.014;2023-04-09T06:00:02;18.17;;;7.03;;
6755;SDS011;3415;51.148;7.014;2023-04-09T06:02:29;13.23;;;6.00;;
6755;SDS011;3415;51.148;7.014;2023-04-09T06:04:56;13.97;;;7.20;;
6755;SDS011;3415;51.148;7.014;2023-04-09T06:07:22;10.30;;;5.80;;
6755;SDS011;3415;51.148;7.014;2023-04-09T06:09:49;8.10;;;5.37;;
6755;SDS011;3415;51.148;7.014;2023-04-09T06:12:16;14.53;;;6.60;;
6755;SDS011;3415;51.148;7.014;2023-04-09T06:14:43;10.80;;;5.50;;
6755;SDS011;3415;51.148;7.014;2023-04-09T06:17:13;11.00;;;6.17;;
6755;SDS011;3415;51.148;7.014;2023-04-09T06:19:40;12.37;;;6.00;;
6755;SDS011;3415;51.148;7.014;2023-04-09T06:22:08;13.77;;;6.30;;
6755;SDS011;3415;51.148;7.014;2023-04-09T06:24:35;12.80;;;6.57;;
6755;SDS011;3415;51.148;7.014;2023-04-09T06:27:02;11.93;;;6.77;;
6755;SDS011;3415;51.148;7.014;2023-04-09T06:29:28;12.40;;;5.90;;
6755;SDS011;3415;51.148;7.014;2023-04-09T06:31:55;12.33;;;7.13;;
6755;SDS011;3415;51.148;7.014;2023-04-09T06:34:23;13.53;;;6.63;;
6755;SDS011;3415;51.148;7.014;2023-04-09T06:36:50;11.93;;;6.50;;
6755;SDS011;3415;51.148;7.014;2023-04-09T06:39:17;12.70;;;6.90;;
6755;SDS011;3415;51.148;7.014;2023-04-09T06:41:44;13.20;;;6.50;;
6755;SDS011;3415;51.148;7.014;2023-04-09T06:44:11;11.80;;;5.90;;
6755;SDS011;3415;51.148;7.014;2023-04-09T06:46:38;13.47;;;7.23;;
6755;SDS011;3415;51.148;7.014;2023-04-09T06:49:05;12.40;;;6.50;;
6755;SDS011;3415;51.148;7.014;2023-04-09T06:51:33;13.60;;;6.30;;
6755;SDS011;3415;51.148;7.014;2023-04-09T06:54:00;9.63;;;6.43;;
6755;SDS011;3415;51.148;7.014;2023-04-09T06:56:27;10.93;;;6.57;;
6755;SDS011;3415;51.148;7.014;2023-04-09T06:58:53;15.73;;;7.17;;
6755;SDS011;3415;51.148;7.014;2023-04-09T07:01:20;12.60;;;6.50;;
6755;SDS011;3415;51.148;7.014;2023-04-09T07:03:47;12.10;;;6.90;;
6755;SDS011;3415;51.148;7.014;2023-04-09T07:06:14;10.70;;;6.07;;
6755;SDS011;3415;51.148;7.014;2023-04-09T07:08:42;11.60;;;7.00;;
6755;SDS011;3415;51.148;7.014;2023-04-09T07:11:10;11.87;;;7.30;;
6755;SDS011;3415;51.148;7.014;2023-04-09T07:13:37;15.13;;;7.30;;
6755;SDS011;3415;51.148;7.014;2023-04-09T07:16:04;12.40;;;6.80;;
6755;SDS011;3415;51.148;7.014;2023-04-09T07:18:31;11.23;;;6.20;;
6755;SDS011;3415;51.148;7.014;2023-04-09T07:20:57;14.67;;;7.43;;
6755;SDS011;3415;51.148;7.014;2023-04-09T07:23:24;11.00;;;6.60;;
6755;SDS011;3415;51.148;7.014;2023-04-09T07:25:53;15.47;;;8.47;;
6755;SDS011;3415;51.148;7.014;2023-04-09T07:28:20;13.37;;;8.07;;
6755;SDS011;3415;51.148;7.014;2023-04-09T07:30:47;16.10;;;8.07;;
6755;SDS011;3415;51.148;7.014;2023-04-09T07:33:14;13.63;;;7.27;;
6755;SDS011;3415;51.148;7.014;2023-04-09T07:35:41;14.70;;;7.87;;
6755;SDS011;3415;51.148;7.014;2023-04-09T07:38:08;14.57;;;7.50;;
6755;SDS011;3415;51.148;7.014;2023-04-09T07:40:35;12.33;;;7.80;;
6755;SDS011;3415;51.148;7.014;2023-04-09T07:43:03;12.87;;;7.90;;
6755;SDS011;3415;51.148;7.014;2023-04-09T07:45:30;13.50;;;7.70;;
6755;SDS011;3415;51.148;7.014;2023-04-09T07:47:57;10.77;;;6.80;;
6755;SDS011;3415;51.148;7.014;2023-04-09T07:50:24;11.70;;;6.73;;
6755;SDS011;3415;51.148;7.014;2023-04-09T07:52:51;13.27;;;7.57;;
6755;SDS011;3415;51.148;7.014;2023-04-09T07:55:17;13.23;;;7.17;;
6755;SDS011;3415;51.148;7.014;2023-04-09T07:57:44;13.67;;;7.90;;
6755;SDS011;3415;51.148;7.014;2023-04-09T08:00:14;14.83;;;7.50;;
6755;SDS011;3415;51.148;7.014;2023-04-09T08:02:42;9.53;;;5.90;;
6755;SDS011;3415;51.148;7.014;2023-04-09T08:05:09;11.47;;;6.60;;
6755;SDS011;3415;51.148;7.014;2023-04-09T08:07:36;13.10;;;7.23;;
6755;SDS011;3415;51.148;7.014;2023-04-09T08:10:03;10.77;;;6.07;;
6755;SDS011;3415;51.148;7.014;2023-04-09T08:12:31;12.97;;;6.77;;
6755;SDS011;3415;51.148;7.014;2023-04-09T08:14:57;12.43;;;6.87;;
6755;SDS011;3415;51.148;7.014;2023-04-09T08:17:26;11.30;;;6.77;;
6755;SDS011;3415;51.148;7.014;2023-04-09T08:19:52;11.50;;;7.10;;
6755;SDS011;3415;51.148;7.014;2023-04-09T08:22:19;10.47;;;5.70;;
6755;SDS011;3415;51.148;7.014;2023-04-09T08:24:49;10.70;;;5.57;;
6755;SDS011;3415;51.148;7.014;2023-04-09T08:27:17;10.57;;;5.63;;
6755;SDS011;3415;51.148;7.014;2023-04-09T08:29:44;11.77;;;6.20;;
6755;SDS011;3415;51.148;7.014;2023-04-09T08:32:10;11.27;;;6.10;;
6755;SDS011;3415;51.148;7.014;2023-04-09T08:34:39;9.73;;;5.10;;
6755;SDS011;3415;51.148;7.014;2023-04-09T08:37:06;10.67;;;6.00;;
6755;SDS011;3415;51.148;7.014;2023-04-09T08:39:33;9.93;;;5.87;;
6755;SDS011;3415;51.148;7.014;2023-04-09T08:42:00;9.40;;;5.87;;
6755;SDS011;3415;51.148;7.014;2023-04-09T08:44:28;11.87;;;5.50;;
6755;SDS011;3415;51.148;7.014;2023-04-09T08:46:55;9.20;;;5.10;;
6755;SDS011;3415;51.148;7.014;2023-04-09T08:49:22;7.37;;;4.33;;
6755;SDS011;3415;51.148;7.014;2023-04-09T08:51:51;9.40;;;5.83;;
6755;SDS011;3415;51.148;7.014;2023-04-09T08:54:17;10.20;;;4.80;;
6755;SDS011;3415;51.148;7.014;2023-04-09T08:56:44;6.90;;;4.30;;
6755;SDS011;3415;51.148;7.014;2023-04-09T08:59:14;6.83;;;4.50;;
6755;SDS011;3415;51.148;7.014;2023-04-09T09:01:42;5.37;;;3.53;;
6755;SDS011;3415;51.148;7.014;2023-04-09T09:04:10;8.90;;;5.03;;
6755;SDS011;3415;51.148;7.014;2023-04-09T09:06:38;12.73;;;4.37;;
6755;SDS011;3415;51.148;7.014;2023-04-09T09:09:07;6.20;;;3.80;;
6755;SDS011;3415;51.148;7.014;2023-04-09T09:11:35;8.27;;;3.90;;
6755;SDS011;3415;51.148;7.014;2023-04-09T09:14:04;4.73;;;3.33;;
6755;SDS011;3415;51.148;7.014;2023-04-09T09:16:32;7.83;;;4.10;;
6755;SDS011;3415;51.148;7.014;2023-04-09T09:19:00;6.70;;;3.90;;
6755;SDS011;3415;51.148;7.014;2023-04-09T09:21:27;7.50;;;4.57;;
6755;SDS011;3415;51.148;7.014;2023-04-09T09:23:55;5.80;;;3.80;;
6755;SDS011;3415;51.148;7.014;2023-04-09T09:26:24;5.43;;;3.40;;
6755;SDS011;3415;51.148;7.014;2023-04-09T09:28:53;5.60;;;3.30;;
6755;SDS011;3415;51.148;7.014;2023-04-09T09:31:22;7.00;;;4.07;;
6755;SDS011;3415;51.148;7.014;2023-04-09T09:33:50;7.00;;;3.90;;
6755;SDS011;3415;51.148;7.014;2023-04-09T09:36:30;5.77;;;3.20;;
6755;SDS011;3415;51.148;7.014;2023-04-09T09:38:57;5.00;;;3.37;;
6755;SDS011;3415;51.148;7.014;2023-04-09T09:41:29;6.80;;;3.83;;
6755;SDS011;3415;51.148;7.014;2023-04-09T09:43:56;6.70;;;3.93;;
6755;SDS011;3415;51.148;7.014;2023-04-09T09:46:24;7.03;;;3.80;;
6755;SDS011;3415;51.148;7.014;2023-04-09T09:48:52;7.30;;;4.60;;
6755;SDS011;3415;51.148;7.014;2023-04-09T09:51:21;6.13;;;3.33;;
6755;SDS011;3415;51.148;7.014;2023-04-09T09:53:53;6.50;;;4.10;;
6755;SDS011;3415;51.148;7.014;2023-04-09T09:56:22;8.13;;;4.60;;
6755;SDS011;3415;51.148;7.014;2023-04-09T09:58:59;7.93;;;4.00;;
6755;SDS011;3415;51.148;7.014;2023-04-09T10:01:31;7.20;;;4.30;;
6755;SDS011;3415;51.148;7.014;2023-04-09T10:03:58;6.67;;;4.67;;
6755;SDS011;3415;51.148;7.014;2023-04-09T10:06:26;8.70;;;4.60;;
6755;SDS011;3415;51.148;7.014;2023-04-09T10:08:56;8.07;;;4.53;;
6755;SDS011;3415;51.148;7.014;2023-04-09T10:11:23;6.17;;;4.00;;
6755;SDS011;3415;51.148;7.014;2023-04-09T10:13:51;6.83;;;4.03;;
6755;SDS011;3415;51.148;7.014;2023-04-09T10:16:22;5.60;;;4.07;;
6755;SDS011;3415;51.148;7.014;2023-04-09T10:18:51;7.10;;;4.30;;
6755;SDS011;3415;51.148;7.014;2023-04-09T10:21:22;6.00;;;4.13;;
6755;SDS011;3415;51.148;7.014;2023-04-09T10:23:53;7.70;;;4.23;;
6755;SDS011;3415;51.148;7.014;2023-04-09T10:26:21;6.60;;;4.00;;
6755;SDS011;3415;51.148;7.014;2023-04-09T10:29:02;11.20;;;3.70;;
6755;SDS011;3415;51.148;7.014;2023-04-09T10:31:45;6.40;;;4.30;;
6755;SDS011;3415;51.148;7.014;2023-04-09T10:34:14;9.73;;;4.93;;
6755;SDS011;3415;51.148;7.014;2023-04-09T10:36:41;7.13;;;4.20;;
6755;SDS011;3415;51.148;7.014;2023-04-09T10:39:12;8.27;;;3.97;;
6755;SDS011;3415;51.148;7.014;2023-04-09T10:41:39;6.87;;;3.93;;
6755;SDS011;3415;51.148;7.014;2023-04-09T10:44:18;6.13;;;4.20;;
6755;SDS011;3415;51.148;7.014;2023-04-09T10:46:47;7.97;;;4.03;;
6755;SDS011;3415;51.148;7.014;2023-04-09T10:49:14;7.67;;;4.07;;
6755;SDS011;3415;51.148;7.014;2023-04-09T10:51:46;8.03;;;4.57;;
6755;SDS011;3415;51.148;7.014;2023-04-09T10:57:09;7.30;;;4.33;;
6755;SDS011;3415;51.148;7.014;2023-04-09T10:59:38;6.83;;;4.10;;
6755;SDS011;3415;51.148;7.014;2023-04-09T11:02:07;9.83;;;3.47;;
6755;SDS011;3415;51.148;7.014;2023-04-09T11:04:38;5.37;;;3.83;;
6755;SDS011;3415;51.148;7.014;2023-04-09T11:07:14;10.23;;;4.17;;
6755;SDS011;3415;51.148;7.014;2023-04-09T11:09:42;6.70;;;3.80;;
6755;SDS011;3415;51.148;7.014;2023-04-09T11:12:10;7.10;;;3.77;;
6755;SDS011;3415;51.148;7.014;2023-04-09T11:14:36;6.80;;;4.20;;
6755;SDS011;3415;51.148;7.014;2023-04-09T11:17:03;8.60;;;4.60;;
6755;SDS011;3415;51.148;7.014;2023-04-09T11:19:33;6.10;;;4.00;;
6755;SDS011;3415;51.148;7.014;2023-04-09T11:22:02;8.10;;;4.90;;
6755;SDS011;3415;51.148;7.014;2023-04-09T11:24:38;6.90;;;4.50;;
6755;SDS011;3415;51.148;7.014;2023-04-09T11:27:06;6.60;;;3.90;;
6755;SDS011;3415;51.148;7.014;2023-04-09T11:29:33;7.70;;;4.70;;
6755;SDS011;3415;51.148;7.014;2023-04-09T11:32:00;7.43;;;4.37;;
6755;SDS011;3415;51.148;7.014;2023-04-09T11:34:27;7.27;;;4.20;;
6755;SDS011;3415;51.148;7.014;2023-04-09T11:36:55;6.23;;;3.67;;
6755;SDS011;3415;51.148;7.014;2023-04-09T11:39:23;5.73;;;3.63;;
6755;SDS011;3415;51.148;7.014;2023-04-09T11:41:50;6.20;;;4.10;;
6755;SDS011;3415;51.148;7.014;2023-04-09T11:44:17;6.00;;;3.77;;
6755;SDS011;3415;51.148;7.014;2023-04-09T11:46:46;7.07;;;3.60;;
6755;SDS011;3415;51.148;7.014;2023-04-09T11:49:15;4.43;;;2.70;;
6755;SDS011;3415;51.148;7.014;2023-04-09T11:51:42;9.57;;;3.50;;
6755;SDS011;3415;51.148;7.014;2023-04-09T11:54:10;7.40;;;4.03;;
6755;SDS011;3415;51.148;7.014;2023-04-09T11:56:37;8.80;;;4.03;;
6755;SDS011;3415;51.148;7.014;2023-04-09T11:59:04;6.87;;;4.20;;
6755;SDS011;3415;51.148;7.014;2023-04-09T12:01:31;9.90;;;4.90;;
6755;SDS011;3415;51.148;7.014;2023-04-09T12:03:59;7.07;;;4.00;;
6755;SDS011;3415;51.148;7.014;2023-04-09T12:06:26;9.03;;;4.57;;
6755;SDS011;3415;51.148;7.014;2023-04-09T12:08:54;7.47;;;4.47;;
6755;SDS011;3415;51.148;7.014;2023-04-09T12:11:27;8.70;;;4.03;;
6755;SDS011;3415;51.148;7.014;2023-04-09T12:13:58;7.67;;;3.67;;
6755;SDS011;3415;51.148;7.014;2023-04-09T12:16:28;9.13;;;4.47;;
6755;SDS011;3415;51.148;7.014;2023-04-09T12:18:55;9.00;;;5.20;;
6755;SDS011;3415;51.148;7.014;2023-04-09T12:21:25;6.23;;;4.10;;
6755;SDS011;3415;51.148;7.014;2023-04-09T12:24:10;7.10;;;3.30;;
6755;SDS011;3415;51.148;7.014;2023-04-09T12:26:38;8.13;;;3.97;;
6755;SDS011;3415;51.148;7.014;2023-04-09T12:29:05;5.07;;;3.33;;
6755;SDS011;3415;51.148;7.014;2023-04-09T12:31:32;6.90;;;3.97;;
6755;SDS011;3415;51.148;7.014;2023-04-09T12:33:59;6.77;;;3.53;;
6755;SDS011;3415;51.148;7.014;2023-04-09T12:36:26;5.63;;;3.30;;
6755;SDS011;3415;51.148;7.014;2023-04-09T12:38:53;7.80;;;4.23;;
6755;SDS011;3415;51.148;7.014;2023-04-09T12:41:20;5.30;;;3.27;;
6755;SDS011;3415;51.148;7.014;2023-04-09T12:43:49;6.90;;;3.70;;
6755;SDS011;3415;51.148;7.014;2023-04-09T12:46:16;5.17;;;2.73;;
6755;SDS011;3415;51.148;7.014;2023-04-09T12:48:43;6.67;;;3.43;;
6755;SDS011;3415;51.148;7.014;2023-04-09T12:51:10;6.90;;;3.50;;
6755;SDS011;3415;51.148;7.014;2023-04-09T12:53:37;5.87;;;3.50;;
6755;SDS011;3415;51.148;7.014;2023-04-09T12:56:05;6.27;;;3.70;;
6755;SDS011;3415;51.148;7.014;2023-04-09T12:58:32;4.93;;;3.20;;
6755;SDS011;3415;51.148;7.014;2023-04-09T13:01:00;5.50;;;3.23;;
6755;SDS011;3415;51.148;7.014;2023-04-09T13:03:28;5.80;;;3.33;;
6755;SDS011;3415;51.148;7.014;2023-04-09T13:05:55;4.13;;;3.00;;
6755;SDS011;3415;51.148;7.014;2023-04-09T13:08:22;5.17;;;3.20;;
6755;SDS011;3415;51.148;7.014;2023-04-09T13:10:49;5.23;;;3.23;;
6755;SDS011;3415;51.148;7.014;2023-04-09T13:13:16;4.87;;;3.10;;
6755;SDS011;3415;51.148;7.014;2023-04-09T13:15:43;4.37;;;2.97;;
6755;SDS011;3415;51.148;7.014;2023-04-09T13:18:11;5.03;;;3.00;;
6755;SDS011;3415;51.148;7.014;2023-04-09T13:20:39;5.67;;;3.67;;
6755;SDS011;3415;51.148;7.014;2023-04-09T13:23:05;3.77;;;2.90;;
6755;SDS011;3415;51.148;7.014;2023-04-09T13:25:32;7.53;;;3.47;;
6755;SDS011;3415;51.148;7.014;2023-04-09T13:27:59;3.57;;;2.70;;
6755;SDS011;3415;51.148;7.014;2023-04-09T13:30:26;3.97;;;2.60;;
6755;SDS011;3415;51.148;7.014;2023-04-09T13:32:53;5.03;;;2.80;;
6755;SDS011;3415;51.148;7.014;2023-04-09T13:35:23;5.53;;;3.40;;
6755;SDS011;3415;51.148;7.014;2023-04-09T13:37:51;5.27;;;3.00;;
6755;SDS011;3415;51.148;7.014;2023-04-09T13:40:18;10.50;;;3.17;;
6755;SDS011;3415;51.148;7.014;2023-04-09T13:42:45;3.77;;;3.10;;
6755;SDS011;3415;51.148;7.014;2023-04-09T13:45:11;4.87;;;3.17;;
6755;SDS011;3415;51.148;7.014;2023-04-09T13:47:38;7.63;;;3.17;;
6755;SDS011;3415;51.148;7.014;2023-04-09T13:50:06;4.70;;;2.70;;
6755;SDS011;3415;51.148;7.014;2023-04-09T13:52:36;4.60;;;2.70;;
6755;SDS011;3415;51.148;7.014;2023-04-09T13:55:03;5.13;;;3.33;;
6755;SDS011;3415;51.148;7.014;2023-04-09T13:57:31;5.07;;;3.27;;
6755;SDS011;3415;51.148;7.014;2023-04-09T13:59:58;3.00;;;2.10;;
6755;SDS011;3415;51.148;7.014;2023-04-09T14:02:28;3.93;;;2.47;;
6755;SDS011;3415;51.148;7.014;2023-04-09T14:04:55;4.60;;;2.93;;
6755;SDS011;3415;51.148;7.014;2023-04-09T14:07:22;4.50;;;2.80;;
6755;SDS011;3415;51.148;7.014;2023-04-09T14:09:50;6.20;;;3.63;;
6755;SDS011;3415;51.148;7.014;2023-04-09T14:12:17;4.87;;;3.00;;
6755;SDS011;3415;51.148;7.014;2023-04-09T14:14:44;5.40;;;3.40;;
6755;SDS011;3415;51.148;7.014;2023-04-09T14:17:11;4.73;;;3.03;;
6755;SDS011;3415;51.148;7.014;2023-04-09T14:19:38;6.63;;;3.93;;
6755;SDS011;3415;51.148;7.014;2023-04-09T14:22:05;5.53;;;3.40;;
6755;SDS011;3415;51.148;7.014;2023-04-09T14:24:32;5.10;;;3.23;;
6755;SDS011;3415;51.148;7.014;2023-04-09T14:27:05;6.43;;;3.60;;
6755;SDS011;3415;51.148;7.014;2023-04-09T14:29:32;4.10;;;2.90;;
6755;SDS011;3415;51.148;7.014;2023-04-09T14:31:59;6.13;;;3.60;;
6755;SDS011;3415;51.148;7.014;2023-04-09T14:34:26;5.03;;;2.93;;
6755;SDS011;3415;51.148;7.014;2023-04-09T14:36:54;5.53;;;3.00;;
6755;SDS011;3415;51.148;7.014;2023-04-09T14:39:21;5.50;;;3.40;;
6755;SDS011;3415;51.148;7.014;2023-04-09T14:41:48;4.43;;;3.03;;
6755;SDS011;3415;51.148;7.014;2023-04-09T14:44:16;6.13;;;3.30;;
6755;SDS011;3415;51.148;7.014;2023-04-09T14:46:43;6.57;;;3.70;;
6755;SDS011;3415;51.148;7.014;2023-04-09T14:49:10;5.07;;;3.10;;
6755;SDS011;3415;51.148;7.014;2023-04-09T14:51:37;6.53;;;3.40;;
6755;SDS011;3415;51.148;7.014;2023-04-09T14:54:04;6.30;;;3.50;;
6755;SDS011;3415;51.148;7.014;2023-04-09T14:56:30;6.17;;;3.10;;
6755;SDS011;3415;51.148;7.014;2023-04-09T14:58:57;4.60;;;3.03;;
6755;SDS011;3415;51.148;7.014;2023-04-09T15:01:26;4.07;;;2.43;;
6755;SDS011;3415;51.148;7.014;2023-04-09T15:03:53;5.20;;;3.30;;
6755;SDS011;3415;51.148;7.014;2023-04-09T15:06:20;5.67;;;3.80;;
6755;SDS011;3415;51.148;7.014;2023-04-09T15:08:47;4.93;;;2.97;;
6755;SDS011;3415;51.148;7.014;2023-04-09T15:11:14;4.70;;;3.23;;